sensor_id;sensor_type;location;lat;lon;timestamp;temperature;humidity
69393;SHT31;56582;44.624;20.378;2023-08-31T00:01:11;18.67;85.55
69393;SHT31;56582;44.624;20.378;2023-08-31T00:03:37;18.63;85.64
69393;SHT31;56582;44.624;20.378;2023-08-31T00:06:02;18.61;85.48
69393;SHT31;56582;44.624;20.378;2023-08-31T00:08:33;18.63;85.44
69393;SHT31;56582;44.624;20.378;2023-08-31T00:11:00;18.56;85.86
69393;SHT31;56582;44.624;20.378;2023-08-31T00:13:26;18.52;86.06
69393;SHT31;56582;44.624;20.378;2023-08-31T00:15:57;18.53;86.07
69393;SHT31;56582;44.624;20.378;2023-08-31T00:18:23;18.60;85.79
69393;SHT31;56582;44.624;20.378;2023-08-31T00:20:50;18.67;85.47
69393;SHT31;56582;44.624;20.378;2023-08-31T00:23:15;18.66;85.22
69393;SHT31;56582;44.624;20.378;2023-08-31T00:25:41;18.67;85.13
69393;SHT31;56582;44.624;20.378;2023-08-31T00:28:08;18.57;85.05
69393;SHT31;56582;44.624;20.378;2023-08-31T00:30:35;18.46;85.32
69393;SHT31;56582;44.624;20.378;2023-08-31T00:33:01;18.43;85.19
69393;SHT31;56582;44.624;20.378;2023-08-31T00:35:27;18.35;85.42
69393;SHT31;56582;44.624;20.378;2023-08-31T00:37:55;18.15;85.73
69393;SHT31;56582;44.624;20.378;2023-08-31T00:40:23;18.12;85.89
69393;SHT31;56582;44.624;20.378;2023-08-31T00:42:49;18.09;85.57
69393;SHT31;56582;44.624;20.378;2023-08-31T00:45:14;18.21;85.17
69393;SHT31;56582;44.624;20.378;2023-08-31T00:47:41;18.25;84.85
69393;SHT31;56582;44.624;20.378;2023-08-31T00:50:07;18.26;84.97
69393;SHT31;56582;44.624;20.378;2023-08-31T00:52:33;18.29;84.69
69393;SHT31;56582;44.624;20.378;2023-08-31T00:55:00;18.29;84.63
69393;SHT31;56582;44.624;20.378;2023-08-31T00:57:30;18.33;84.73
69393;SHT31;56582;44.624;20.378;2023-08-31T00:59:55;18.36;84.66
69393;SHT31;56582;44.624;20.378;2023-08-31T01:02:58;18.35;84.57
69393;SHT31;56582;44.624;20.378;2023-08-31T01:11:00;18.32;84.30
69393;SHT31;56582;44.624;20.378;2023-08-31T01:13:30;18.19;84.35
69393;SHT31;56582;44.624;20.378;2023-08-31T01:16:00;18.21;84.37
69393;SHT31;56582;44.624;20.378;2023-08-31T01:18:28;18.22;84.14
69393;SHT31;56582;44.624;20.378;2023-08-31T01:21:30;18.04;84.27
69393;SHT31;56582;44.624;20.378;2023-08-31T01:23:59;17.91;84.81
69393;SHT31;56582;44.624;20.378;2023-08-31T01:26:25;17.87;85.12
69393;SHT31;56582;44.624;20.378;2023-08-31T01:28:51;17.89;85.19
69393;SHT31;56582;44.624;20.378;2023-08-31T01:31:18;17.84;85.09
69393;SHT31;56582;44.624;20.378;2023-08-31T01:33:43;17.77;85.12
69393;SHT31;56582;44.624;20.378;2023-08-31T01:36:17;17.82;84.91
69393;SHT31;56582;44.624;20.378;2023-08-31T01:38:45;17.85;84.66
69393;SHT31;56582;44.624;20.378;2023-08-31T01:41:16;17.81;84.66
69393;SHT31;56582;44.624;20.378;2023-08-31T01:43:43;17.74;84.96
69393;SHT31;56582;44.624;20.378;2023-08-31T01:46:10;17.70;85.42
69393;SHT31;56582;44.624;20.378;2023-08-31T01:48:42;17.71;85.70
69393;SHT31;56582;44.624;20.378;2023-08-31T01:51:08;17.61;85.59
69393;SHT31;56582;44.624;20.378;2023-08-31T01:53:34;17.57;85.55
69393;SHT31;56582;44.624;20.378;2023-08-31T01:55:59;17.58;85.54
69393;SHT31;56582;44.624;20.378;2023-08-31T01:58:25;17.53;85.13
69393;SHT31;56582;44.624;20.378;2023-08-31T02:00:50;17.54;85.68
69393;SHT31;56582;44.624;20.378;2023-08-31T02:03:16;17.54;85.51
69393;SHT31;56582;44.624;20.378;2023-08-31T02:05:41;17.55;85.40
69393;SHT31;56582;44.624;20.378;2023-08-31T02:08:07;17.51;85.47
69393;SHT31;56582;44.624;20.378;2023-08-31T02:10:32;17.57;85.45
69393;SHT31;56582;44.624;20.378;2023-08-31T02:12:58;17.64;85.31
69393;SHT31;56582;44.624;20.378;2023-08-31T02:15:24;17.63;85.18
69393;SHT31;56582;44.624;20.378;2023-08-31T02:17:49;17.68;85.15
69393;SHT31;56582;44.624;20.378;2023-08-31T02:20:15;17.71;84.84
69393;SHT31;56582;44.624;20.378;2023-08-31T02:22:40;17.47;85.13
69393;SHT31;56582;44.624;20.378;2023-08-31T02:25:06;17.39;85.79
69393;SHT31;56582;44.624;20.378;2023-08-31T02:27:31;17.30;86.08
69393;SHT31;56582;44.624;20.378;2023-08-31T02:29:57;17.34;85.98
69393;SHT31;56582;44.624;20.378;2023-08-31T02:32:22;17.29;86.07
69393;SHT31;56582;44.624;20.378;2023-08-31T02:34:49;17.36;85.98
69393;SHT31;56582;44.624;20.378;2023-08-31T02:37:14;17.44;85.63
69393;SHT31;56582;44.624;20.378;2023-08-31T02:39:39;17.41;85.24
69393;SHT31;56582;44.624;20.378;2023-08-31T02:42:05;17.44;85.18
69393;SHT31;56582;44.624;20.378;2023-08-31T02:44:31;17.50;85.13
69393;SHT31;56582;44.624;20.378;2023-08-31T02:46:57;17.58;85.11
69393;SHT31;56582;44.624;20.378;2023-08-31T02:49:22;17.49;84.86
69393;SHT31;56582;44.624;20.378;2023-08-31T02:51:48;17.46;85.27
69393;SHT31;56582;44.624;20.378;2023-08-31T02:54:15;17.50;85.35
69393;SHT31;56582;44.624;20.378;2023-08-31T02:56:40;17.46;85.67
69393;SHT31;56582;44.624;20.378;2023-08-31T02:59:05;17.40;85.78
69393;SHT31;56582;44.624;20.378;2023-08-31T03:01:31;17.30;85.89
69393;SHT31;56582;44.624;20.378;2023-08-31T03:03:56;17.31;85.93
69393;SHT31;56582;44.624;20.378;2023-08-31T03:06:22;17.36;85.91
69393;SHT31;56582;44.624;20.378;2023-08-31T03:08:47;17.36;85.52
69393;SHT31;56582;44.624;20.378;2023-08-31T03:11:13;17.40;85.35
69393;SHT31;56582;44.624;20.378;2023-08-31T03:13:41;17.33;85.47
69393;SHT31;56582;44.624;20.378;2023-08-31T03:16:07;17.23;85.96
69393;SHT31;56582;44.624;20.378;2023-08-31T03:18:33;17.22;86.18
69393;SHT31;56582;44.624;20.378;2023-08-31T03:20:58;17.13;86.01
69393;SHT31;56582;44.624;20.378;2023-08-31T03:23:24;17.10;86.05
69393;SHT31;56582;44.624;20.378;2023-08-31T03:25:50;17.16;86.32
69393;SHT31;56582;44.624;20.378;2023-08-31T03:28:15;17.12;86.62
69393;SHT31;56582;44.624;20.378;2023-08-31T03:30:41;17.10;87.11
69393;SHT31;56582;44.624;20.378;2023-08-31T03:33:06;17.03;86.89
69393;SHT31;56582;44.624;20.378;2023-08-31T03:35:32;17.06;86.67
69393;SHT31;56582;44.624;20.378;2023-08-31T03:37:58;17.03;86.57
69393;SHT31;56582;44.624;20.378;2023-08-31T03:40:23;16.99;87.10
69393;SHT31;56582;44.624;20.378;2023-08-31T03:42:52;17.10;87.17
69393;SHT31;56582;44.624;20.378;2023-08-31T03:45:19;17.12;87.15
69393;SHT31;56582;44.624;20.378;2023-08-31T03:47:45;17.18;86.92
69393;SHT31;56582;44.624;20.378;2023-08-31T03:50:14;17.13;86.83
69393;SHT31;56582;44.624;20.378;2023-08-31T03:52:39;17.15;87.07
69393;SHT31;56582;44.624;20.378;2023-08-31T03:55:05;17.22;87.12
69393;SHT31;56582;44.624;20.378;2023-08-31T03:57:30;17.24;86.79
69393;SHT31;56582;44.624;20.378;2023-08-31T03:59:56;17.30;86.60
69393;SHT31;56582;44.624;20.378;2023-08-31T04:02:21;17.34;86.50
69393;SHT31;56582;44.624;20.378;2023-08-31T04:04:48;17.31;86.52
69393;SHT31;56582;44.624;20.378;2023-08-31T04:07:20;17.31;86.62
69393;SHT31;56582;44.624;20.378;2023-08-31T04:09:45;17.33;86.88
69393;SHT31;56582;44.624;20.378;2023-08-31T04:12:11;17.33;86.71
69393;SHT31;56582;44.624;20.378;2023-08-31T04:14:36;17.37;86.79
69393;SHT31;56582;44.624;20.378;2023-08-31T04:17:02;17.36;86.71
69393;SHT31;56582;44.624;20.378;2023-08-31T04:19:30;17.34;86.66
69393;SHT31;56582;44.624;20.378;2023-08-31T04:21:55;17.40;86.61
69393;SHT31;56582;44.624;20.378;2023-08-31T04:24:21;17.49;86.54
69393;SHT31;56582;44.624;20.378;2023-08-31T04:26:46;17.49;86.46
69393;SHT31;56582;44.624;20.378;2023-08-31T04:29:14;17.43;86.44
69393;SHT31;56582;44.624;20.378;2023-08-31T04:31:39;17.43;86.45
69393;SHT31;56582;44.624;20.378;2023-08-31T04:34:05;17.37;86.64
69393;SHT31;56582;44.624;20.378;2023-08-31T04:36:30;17.39;86.75
69393;SHT31;56582;44.624;20.378;2023-08-31T04:38:56;17.37;86.92
69393;SHT31;56582;44.624;20.378;2023-08-31T04:41:21;17.39;87.18
69393;SHT31;56582;44.624;20.378;2023-08-31T04:43:47;17.41;87.54
69393;SHT31;56582;44.624;20.378;2023-08-31T04:46:15;17.43;87.70
69393;SHT31;56582;44.624;20.378;2023-08-31T04:48:41;17.49;87.75
69393;SHT31;56582;44.624;20.378;2023-08-31T04:51:09;17.57;87.71
69393;SHT31;56582;44.624;20.378;2023-08-31T04:53:35;17.67;87.64
69393;SHT31;56582;44.624;20.378;2023-08-31T04:56:00;17.66;88.50
69393;SHT31;56582;44.624;20.378;2023-08-31T04:58:25;17.75;88.74
69393;SHT31;56582;44.624;20.378;2023-08-31T05:00:51;17.85;88.20
69393;SHT31;56582;44.624;20.378;2023-08-31T05:03:24;17.98;88.61
69393;SHT31;56582;44.624;20.378;2023-08-31T05:05:50;18.06;87.93
69393;SHT31;56582;44.624;20.378;2023-08-31T05:08:15;18.16;87.47
69393;SHT31;56582;44.624;20.378;2023-08-31T05:10:41;18.16;87.92
69393;SHT31;56582;44.624;20.378;2023-08-31T05:13:06;18.25;87.43
69393;SHT31;56582;44.624;20.378;2023-08-31T05:15:31;18.24;87.66
69393;SHT31;56582;44.624;20.378;2023-08-31T05:17:58;18.33;87.40
69393;SHT31;56582;44.624;20.378;2023-08-31T05:20:24;18.40;87.27
69393;SHT31;56582;44.624;20.378;2023-08-31T05:22:49;18.52;87.08
69393;SHT31;56582;44.624;20.378;2023-08-31T05:25:15;18.57;86.97
69393;SHT31;56582;44.624;20.378;2023-08-31T05:27:40;18.53;87.93
69393;SHT31;56582;44.624;20.378;2023-08-31T05:30:07;18.57;88.34
69393;SHT31;56582;44.624;20.378;2023-08-31T05:32:32;18.73;87.74
69393;SHT31;56582;44.624;20.378;2023-08-31T05:34:59;18.91;87.32
69393;SHT31;56582;44.624;20.378;2023-08-31T05:37:25;18.98;86.80
69393;SHT31;56582;44.624;20.378;2023-08-31T05:39:51;18.97;86.70
69393;SHT31;56582;44.624;20.378;2023-08-31T05:42:16;19.10;86.74
69393;SHT31;56582;44.624;20.378;2023-08-31T05:44:41;19.21;86.81
69393;SHT31;56582;44.624;20.378;2023-08-31T05:47:07;19.28;86.77
69393;SHT31;56582;44.624;20.378;2023-08-31T05:49:35;19.44;85.66
69393;SHT31;56582;44.624;20.378;2023-08-31T05:52:00;19.42;84.68
69393;SHT31;56582;44.624;20.378;2023-08-31T05:54:26;19.45;84.36
69393;SHT31;56582;44.624;20.378;2023-08-31T05:56:52;19.58;84.19
69393;SHT31;56582;44.624;20.378;2023-08-31T05:59:17;19.73;84.68
69393;SHT31;56582;44.624;20.378;2023-08-31T06:01:43;19.92;84.38
69393;SHT31;56582;44.624;20.378;2023-08-31T06:04:09;19.93;83.90
69393;SHT31;56582;44.624;20.378;2023-08-31T06:06:35;19.97;83.68
69393;SHT31;56582;44.624;20.378;2023-08-31T06:09:00;19.94;82.71
69393;SHT31;56582;44.624;20.378;2023-08-31T06:11:26;19.83;79.83
69393;SHT31;56582;44.624;20.378;2023-08-31T06:13:54;19.70;80.51
69393;SHT31;56582;44.624;20.378;2023-08-31T06:16:19;19.93;81.16
69393;SHT31;56582;44.624;20.378;2023-08-31T06:18:45;20.10;79.93
69393;SHT31;56582;44.624;20.378;2023-08-31T06:21:10;20.11;78.28
69393;SHT31;56582;44.624;20.378;2023-08-31T06:23:36;20.17;79.32
69393;SHT31;56582;44.624;20.378;2023-08-31T06:26:01;20.27;79.88
69393;SHT31;56582;44.624;20.378;2023-08-31T06:28:27;20.34;82.28
69393;SHT31;56582;44.624;20.378;2023-08-31T06:30:52;20.49;82.85
69393;SHT31;56582;44.624;20.378;2023-08-31T06:33:17;20.59;82.52
69393;SHT31;56582;44.624;20.378;2023-08-31T06:35:47;20.79;81.54
69393;SHT31;56582;44.624;20.378;2023-08-31T06:38:18;20.86;80.62
69393;SHT31;56582;44.624;20.378;2023-08-31T06:40:43;20.93;79.51
69393;SHT31;56582;44.624;20.378;2023-08-31T06:43:09;21.03;78.91
69393;SHT31;56582;44.624;20.378;2023-08-31T06:45:35;20.99;79.27
69393;SHT31;56582;44.624;20.378;2023-08-31T06:48:01;21.13;79.20
69393;SHT31;56582;44.624;20.378;2023-08-31T06:50:29;21.14;79.66
69393;SHT31;56582;44.624;20.378;2023-08-31T06:52:55;21.30;77.78
69393;SHT31;56582;44.624;20.378;2023-08-31T06:55:20;21.41;76.28
69393;SHT31;56582;44.624;20.378;2023-08-31T06:57:46;21.55;75.22
69393;SHT31;56582;44.624;20.378;2023-08-31T07:00:11;21.73;76.61
69393;SHT31;56582;44.624;20.378;2023-08-31T07:02:40;21.82;75.65
69393;SHT31;56582;44.624;20.378;2023-08-31T07:05:06;21.87;75.41
69393;SHT31;56582;44.624;20.378;2023-08-31T07:07:32;21.99;76.38
69393;SHT31;56582;44.624;20.378;2023-08-31T07:09:57;21.99;75.08
69393;SHT31;56582;44.624;20.378;2023-08-31T07:12:22;22.20;75.20
69393;SHT31;56582;44.624;20.378;2023-08-31T07:14:48;22.33;74.20
69393;SHT31;56582;44.624;20.378;2023-08-31T07:17:17;22.50;75.27
69393;SHT31;56582;44.624;20.378;2023-08-31T07:19:43;22.60;74.95
69393;SHT31;56582;44.624;20.378;2023-08-31T07:22:08;22.46;74.77
69393;SHT31;56582;44.624;20.378;2023-08-31T07:24:34;22.63;72.59
69393;SHT31;56582;44.624;20.378;2023-08-31T07:27:01;22.70;73.51
69393;SHT31;56582;44.624;20.378;2023-08-31T07:29:27;22.80;72.13
69393;SHT31;56582;44.624;20.378;2023-08-31T07:31:53;22.66;71.15
69393;SHT31;56582;44.624;20.378;2023-08-31T07:34:18;22.66;72.03
69393;SHT31;56582;44.624;20.378;2023-08-31T07:36:44;22.74;72.38
69393;SHT31;56582;44.624;20.378;2023-08-31T07:39:10;22.56;72.43
69393;SHT31;56582;44.624;20.378;2023-08-31T07:41:35;22.63;72.25
69393;SHT31;56582;44.624;20.378;2023-08-31T07:44:01;22.70;72.76
69393;SHT31;56582;44.624;20.378;2023-08-31T07:46:28;22.76;70.95
69393;SHT31;56582;44.624;20.378;2023-08-31T07:48:53;22.88;71.13
69393;SHT31;56582;44.624;20.378;2023-08-31T07:51:19;22.83;71.29
69393;SHT31;56582;44.624;20.378;2023-08-31T07:53:48;23.05;71.00
69393;SHT31;56582;44.624;20.378;2023-08-31T07:56:14;22.95;69.06
69393;SHT31;56582;44.624;20.378;2023-08-31T07:58:40;23.11;70.16
69393;SHT31;56582;44.624;20.378;2023-08-31T08:01:05;22.90;68.75
69393;SHT31;56582;44.624;20.378;2023-08-31T08:03:30;22.95;68.44
69393;SHT31;56582;44.624;20.378;2023-08-31T08:05:56;23.01;69.18
69393;SHT31;56582;44.624;20.378;2023-08-31T08:08:21;22.81;69.92
69393;SHT31;56582;44.624;20.378;2023-08-31T08:10:51;23.01;70.73
69393;SHT31;56582;44.624;20.378;2023-08-31T08:13:16;23.04;69.84
69393;SHT31;56582;44.624;20.378;2023-08-31T08:15:42;23.22;69.95
69393;SHT31;56582;44.624;20.378;2023-08-31T08:18:08;23.12;69.66
69393;SHT31;56582;44.624;20.378;2023-08-31T08:20:33;23.38;71.04
69393;SHT31;56582;44.624;20.378;2023-08-31T08:22:58;23.19;71.05
69393;SHT31;56582;44.624;20.378;2023-08-31T08:25:24;23.43;70.61
69393;SHT31;56582;44.624;20.378;2023-08-31T08:27:50;23.69;71.47
69393;SHT31;56582;44.624;20.378;2023-08-31T08:30:16;22.97;71.13
69393;SHT31;56582;44.624;20.378;2023-08-31T08:32:42;23.22;71.47
69393;SHT31;56582;44.624;20.378;2023-08-31T08:35:07;23.00;72.53
69393;SHT31;56582;44.624;20.378;2023-08-31T08:37:33;23.07;72.23
69393;SHT31;56582;44.624;20.378;2023-08-31T08:39:59;23.22;71.61
69393;SHT31;56582;44.624;20.378;2023-08-31T08:42:25;23.22;71.73
69393;SHT31;56582;44.624;20.378;2023-08-31T08:44:51;23.04;71.60
69393;SHT31;56582;44.624;20.378;2023-08-31T08:47:20;22.86;72.88
69393;SHT31;56582;44.624;20.378;2023-08-31T08:49:47;23.18;71.96
69393;SHT31;56582;44.624;20.378;2023-08-31T08:52:17;23.15;71.20
69393;SHT31;56582;44.624;20.378;2023-08-31T08:54:43;23.03;70.85
69393;SHT31;56582;44.624;20.378;2023-08-31T08:57:09;23.07;71.62
69393;SHT31;56582;44.624;20.378;2023-08-31T08:59:35;23.15;71.06
69393;SHT31;56582;44.624;20.378;2023-08-31T09:02:00;23.04;71.04
69393;SHT31;56582;44.624;20.378;2023-08-31T09:04:26;23.11;70.52
69393;SHT31;56582;44.624;20.378;2023-08-31T09:06:51;22.91;70.05
69393;SHT31;56582;44.624;20.378;2023-08-31T09:09:17;23.31;70.25
69393;SHT31;56582;44.624;20.378;2023-08-31T09:11:43;23.59;69.12
69393;SHT31;56582;44.624;20.378;2023-08-31T09:14:15;23.80;68.75
69393;SHT31;56582;44.624;20.378;2023-08-31T09:16:45;24.09;68.01
69393;SHT31;56582;44.624;20.378;2023-08-31T09:19:24;24.10;68.76
69393;SHT31;56582;44.624;20.378;2023-08-31T09:21:55;23.61;68.94
69393;SHT31;56582;44.624;20.378;2023-08-31T09:24:20;23.39;70.01
69393;SHT31;56582;44.624;20.378;2023-08-31T09:26:52;23.52;70.52
69393;SHT31;56582;44.624;20.378;2023-08-31T09:29:17;23.86;69.72
69393;SHT31;56582;44.624;20.378;2023-08-31T09:31:43;24.16;69.40
69393;SHT31;56582;44.624;20.378;2023-08-31T09:34:09;24.20;67.53
69393;SHT31;56582;44.624;20.378;2023-08-31T09:36:36;24.32;65.87
69393;SHT31;56582;44.624;20.378;2023-08-31T09:39:01;24.47;65.37
69393;SHT31;56582;44.624;20.378;2023-08-31T09:41:27;24.72;65.61
69393;SHT31;56582;44.624;20.378;2023-08-31T09:43:53;24.65;64.41
69393;SHT31;56582;44.624;20.378;2023-08-31T09:46:19;24.55;65.69
69393;SHT31;56582;44.624;20.378;2023-08-31T09:48:45;24.83;66.04
69393;SHT31;56582;44.624;20.378;2023-08-31T09:51:14;24.73;65.15
69393;SHT31;56582;44.624;20.378;2023-08-31T09:53:42;24.59;64.51
69393;SHT31;56582;44.624;20.378;2023-08-31T09:56:13;24.58;65.39
69393;SHT31;56582;44.624;20.378;2023-08-31T09:58:38;24.92;63.61
69393;SHT31;56582;44.624;20.378;2023-08-31T10:01:05;24.86;65.57
69393;SHT31;56582;44.624;20.378;2023-08-31T10:03:31;25.09;65.46
69393;SHT31;56582;44.624;20.378;2023-08-31T10:05:58;25.38;64.33
69393;SHT31;56582;44.624;20.378;2023-08-31T10:08:24;25.58;63.36
69393;SHT31;56582;44.624;20.378;2023-08-31T10:10:52;25.75;62.12
69393;SHT31;56582;44.624;20.378;2023-08-31T10:13:19;25.60;62.11
69393;SHT31;56582;44.624;20.378;2023-08-31T10:15:48;25.58;62.74
69393;SHT31;56582;44.624;20.378;2023-08-31T10:18:14;25.65;61.37
69393;SHT31;56582;44.624;20.378;2023-08-31T10:20:42;25.22;61.91
69393;SHT31;56582;44.624;20.378;2023-08-31T10:23:08;25.58;63.03
69393;SHT31;56582;44.624;20.378;2023-08-31T10:28:25;25.86;58.76
69393;SHT31;56582;44.624;20.378;2023-08-31T10:33:43;26.08;59.89
69393;SHT31;56582;44.624;20.378;2023-08-31T10:36:16;26.23;56.34
69393;SHT31;56582;44.624;20.378;2023-08-31T10:38:45;26.19;58.02
69393;SHT31;56582;44.624;20.378;2023-08-31T10:43:47;26.29;54.28
69393;SHT31;56582;44.624;20.378;2023-08-31T10:46:33;26.33;54.81
69393;SHT31;56582;44.624;20.378;2023-08-31T10:51:36;26.21;54.98
69393;SHT31;56582;44.624;20.378;2023-08-31T10:59:19;26.25;56.56
69393;SHT31;56582;44.624;20.378;2023-08-31T11:01:57;25.81;57.51
69393;SHT31;56582;44.624;20.378;2023-08-31T11:04:25;26.05;58.63
69393;SHT31;56582;44.624;20.378;2023-08-31T11:07:16;26.32;57.62
69393;SHT31;56582;44.624;20.378;2023-08-31T11:09:43;26.56;56.98
69393;SHT31;56582;44.624;20.378;2023-08-31T11:12:09;26.54;58.58
69393;SHT31;56582;44.624;20.378;2023-08-31T11:14:35;26.72;57.33
69393;SHT31;56582;44.624;20.378;2023-08-31T11:17:01;26.84;56.74
69393;SHT31;56582;44.624;20.378;2023-08-31T11:19:29;26.79;56.77
69393;SHT31;56582;44.624;20.378;2023-08-31T11:21:55;26.77;57.11
69393;SHT31;56582;44.624;20.378;2023-08-31T11:24:21;26.79;57.51
69393;SHT31;56582;44.624;20.378;2023-08-31T11:26:50;26.93;56.49
69393;SHT31;56582;44.624;20.378;2023-08-31T11:29:16;27.08;56.66
69393;SHT31;56582;44.624;20.378;2023-08-31T11:31:41;26.88;57.32
69393;SHT31;56582;44.624;20.378;2023-08-31T11:34:11;26.73;57.38
69393;SHT31;56582;44.624;20.378;2023-08-31T11:36:37;26.69;57.03
69393;SHT31;56582;44.624;20.378;2023-08-31T11:39:03;26.49;57.36
69393;SHT31;56582;44.624;20.378;2023-08-31T11:41:35;26.25;57.16
69393;SHT31;56582;44.624;20.378;2023-08-31T11:44:03;25.92;58.74
69393;SHT31;56582;44.624;20.378;2023-08-31T11:46:29;26.31;59.12
69393;SHT31;56582;44.624;20.378;2023-08-31T11:48:55;25.82;58.98
69393;SHT31;56582;44.624;20.378;2023-08-31T11:51:21;26.12;58.64
69393;SHT31;56582;44.624;20.378;2023-08-31T11:53:47;26.13;57.70
69393;SHT31;56582;44.624;20.378;2023-08-31T11:56:12;26.22;58.68
69393;SHT31;56582;44.624;20.378;2023-08-31T11:58:44;26.04;59.01
69393;SHT31;56582;44.624;20.378;2023-08-31T12:01:17;25.74;59.15
69393;SHT31;56582;44.624;20.378;2023-08-31T12:03:44;25.67;58.84
69393;SHT31;56582;44.624;20.378;2023-08-31T12:06:10;25.99;60.23
69393;SHT31;56582;44.624;20.378;2023-08-31T12:08:36;26.11;60.53
69393;SHT31;56582;44.624;20.378;2023-08-31T12:11:02;26.15;57.68
69393;SHT31;56582;44.624;20.378;2023-08-31T12:13:27;25.96;57.64
69393;SHT31;56582;44.624;20.378;2023-08-31T12:15:57;26.21;58.67
69393;SHT31;56582;44.624;20.378;2023-08-31T12:18:23;26.13;58.81
69393;SHT31;56582;44.624;20.378;2023-08-31T12:20:51;26.06;58.38
69393;SHT31;56582;44.624;20.378;2023-08-31T12:23:18;26.25;57.65
69393;SHT31;56582;44.624;20.378;2023-08-31T12:25:50;26.29;57.12
69393;SHT31;56582;44.624;20.378;2023-08-31T12:28:17;26.13;55.94
69393;SHT31;56582;44.624;20.378;2023-08-31T12:30:47;26.08;56.15
69393;SHT31;56582;44.624;20.378;2023-08-31T12:33:12;26.12;55.18
69393;SHT31;56582;44.624;20.378;2023-08-31T12:35:38;26.36;54.66
69393;SHT31;56582;44.624;20.378;2023-08-31T12:38:04;26.52;53.63
69393;SHT31;56582;44.624;20.378;2023-08-31T12:40:29;26.72;53.81
69393;SHT31;56582;44.624;20.378;2023-08-31T12:42:55;26.79;55.80
69393;SHT31;56582;44.624;20.378;2023-08-31T12:45:20;26.52;55.96
69393;SHT31;56582;44.624;20.378;2023-08-31T12:47:46;26.36;56.22
69393;SHT31;56582;44.624;20.378;2023-08-31T12:50:13;26.28;57.51
69393;SHT31;56582;44.624;20.378;2023-08-31T12:52:38;26.31;57.21
69393;SHT31;56582;44.624;20.378;2023-08-31T12:55:10;26.31;57.99
69393;SHT31;56582;44.624;20.378;2023-08-31T12:57:35;26.06;57.32
69393;SHT31;56582;44.624;20.378;2023-08-31T13:00:01;26.28;57.48
69393;SHT31;56582;44.624;20.378;2023-08-31T13:02:30;26.35;57.39
69393;SHT31;56582;44.624;20.378;2023-08-31T13:04:55;26.40;57.31
69393;SHT31;56582;44.624;20.378;2023-08-31T13:07:21;26.22;55.80
69393;SHT31;56582;44.624;20.378;2023-08-31T13:09:46;26.47;54.84
69393;SHT31;56582;44.624;20.378;2023-08-31T13:12:11;26.42;55.25
69393;SHT31;56582;44.624;20.378;2023-08-31T13:14:37;26.33;56.73
69393;SHT31;56582;44.624;20.378;2023-08-31T13:17:04;26.28;56.89
69393;SHT31;56582;44.624;20.378;2023-08-31T13:19:30;26.16;57.58
69393;SHT31;56582;44.624;20.378;2023-08-31T13:21:55;26.47;57.51
69393;SHT31;56582;44.624;20.378;2023-08-31T13:24:21;26.26;55.25
69393;SHT31;56582;44.624;20.378;2023-08-31T13:26:46;26.28;56.92
69393;SHT31;56582;44.624;20.378;2023-08-31T13:29:13;26.43;58.22
69393;SHT31;56582;44.624;20.378;2023-08-31T13:31:39;26.31;56.86
69393;SHT31;56582;44.624;20.378;2023-08-31T13:34:05;26.28;56.79
69393;SHT31;56582;44.624;20.378;2023-08-31T13:36:33;26.40;56.38
69393;SHT31;56582;44.624;20.378;2023-08-31T13:38:59;26.16;55.59
69393;SHT31;56582;44.624;20.378;2023-08-31T13:41:24;26.16;56.16
69393;SHT31;56582;44.624;20.378;2023-08-31T13:43:50;26.52;56.78
69393;SHT31;56582;44.624;20.378;2023-08-31T13:46:17;26.70;55.59
69393;SHT31;56582;44.624;20.378;2023-08-31T13:48:42;26.90;54.66
69393;SHT31;56582;44.624;20.378;2023-08-31T13:51:07;26.79;55.47
69393;SHT31;56582;44.624;20.378;2023-08-31T13:53:33;27.05;55.18
69393;SHT31;56582;44.624;20.378;2023-08-31T13:55:59;26.73;54.75
69393;SHT31;56582;44.624;20.378;2023-08-31T13:58:24;26.33;55.71
69393;SHT31;56582;44.624;20.378;2023-08-31T14:00:50;26.22;55.99
69393;SHT31;56582;44.624;20.378;2023-08-31T14:03:15;26.21;57.14
69393;SHT31;56582;44.624;20.378;2023-08-31T14:05:42;26.43;56.21
69393;SHT31;56582;44.624;20.378;2023-08-31T14:08:07;25.91;56.59
69393;SHT31;56582;44.624;20.378;2023-08-31T14:10:33;25.84;55.36
69393;SHT31;56582;44.624;20.378;2023-08-31T14:12:59;25.88;57.08
69393;SHT31;56582;44.624;20.378;2023-08-31T14:15:25;25.77;56.69
69393;SHT31;56582;44.624;20.378;2023-08-31T14:17:51;25.57;56.48
69393;SHT31;56582;44.624;20.378;2023-08-31T14:20:18;25.74;56.68
69393;SHT31;56582;44.624;20.378;2023-08-31T14:22:44;25.98;56.29
69393;SHT31;56582;44.624;20.378;2023-08-31T14:25:14;25.98;56.46
69393;SHT31;56582;44.624;20.378;2023-08-31T14:27:40;25.75;56.70
69393;SHT31;56582;44.624;20.378;2023-08-31T14:30:06;25.64;57.04
69393;SHT31;56582;44.624;20.378;2023-08-31T14:32:32;25.81;57.73
69393;SHT31;56582;44.624;20.378;2023-08-31T14:34:57;25.63;57.23
69393;SHT31;56582;44.624;20.378;2023-08-31T14:37:23;25.54;56.71
69393;SHT31;56582;44.624;20.378;2023-08-31T14:39:49;25.64;56.86
69393;SHT31;56582;44.624;20.378;2023-08-31T14:42:14;25.84;57.96
69393;SHT31;56582;44.624;20.378;2023-08-31T14:44:46;25.73;55.93
69393;SHT31;56582;44.624;20.378;2023-08-31T14:47:11;25.85;57.30
69393;SHT31;56582;44.624;20.378;2023-08-31T14:49:39;25.67;56.63
69393;SHT31;56582;44.624;20.378;2023-08-31T14:52:06;25.46;56.52
69393;SHT31;56582;44.624;20.378;2023-08-31T14:54:33;25.54;57.20
69393;SHT31;56582;44.624;20.378;2023-08-31T14:56:58;25.53;56.98
69393;SHT31;56582;44.624;20.378;2023-08-31T14:59:24;25.46;57.37
69393;SHT31;56582;44.624;20.378;2023-08-31T15:01:50;25.53;57.58
69393;SHT31;56582;44.624;20.378;2023-08-31T15:04:15;25.65;56.55
69393;SHT31;56582;44.624;20.378;2023-08-31T15:06:41;25.58;57.60
69393;SHT31;56582;44.624;20.378;2023-08-31T15:09:06;25.63;57.67
69393;SHT31;56582;44.624;20.378;2023-08-31T15:11:32;25.38;58.40
69393;SHT31;56582;44.624;20.378;2023-08-31T15:13:57;25.41;58.42
69393;SHT31;56582;44.624;20.378;2023-08-31T15:16:24;25.38;58.51
69393;SHT31;56582;44.624;20.378;2023-08-31T15:18:50;25.37;58.97
69393;SHT31;56582;44.624;20.378;2023-08-31T15:21:16;25.48;58.33
69393;SHT31;56582;44.624;20.378;2023-08-31T15:23:43;25.36;59.17
69393;SHT31;56582;44.624;20.378;2023-08-31T15:26:09;25.50;58.33
69393;SHT31;56582;44.624;20.378;2023-08-31T15:28:34;25.34;57.34
69393;SHT31;56582;44.624;20.378;2023-08-31T15:31:00;25.43;57.62
69393;SHT31;56582;44.624;20.378;2023-08-31T15:33:25;25.54;56.86